Terminal Aerodrome Forecast
Issued by NWS

Current Version | Previous Version | Text Only | Print | Product List | Glossary On
Versions: 1 2 3 4 5 6 7 8 9 10 11 12 13 14 15 16
000
FTUS43 KGRB 121100
TAFAUW
TAF
KAUW 121133Z 1212/1312 VRB03KT P6SM SCT025 BKN050
     FM121700 24007KT P6SM VCSH BKN035 BKN070
      TEMPO 1221/1301 4SM TSRA OVC020CB
     FM130200 28005KT P6SM BKN100=

USA.gov is the U.S. government's official web portal to all federal, state and local government web resources and services.